createdAt,value
2022-09-16T00:02:54.855Z,75.30
2022-09-16T00:07:59.704Z,75.40
2022-09-16T00:13:03.618Z,74.50
2022-09-16T00:18:07.323Z,74.50
2022-09-16T00:23:12.293Z,74.80
2022-09-16T00:28:16.035Z,74.70
2022-09-16T00:33:21.182Z,74.70
2022-09-16T00:38:26.250Z,74.20
2022-09-16T00:43:30.036Z,74.80
2022-09-16T00:48:35.537Z,75.40
2022-09-16T00:53:46.824Z,75.60
2022-09-16T00:58:56.259Z,75.80
2022-09-16T01:04:06.711Z,75.80
2022-09-16T01:09:11.592Z,76.00
2022-09-16T01:14:34.583Z,76.50
2022-09-16T01:20:06.955Z,76.30
2022-09-16T01:25:29.463Z,76.30
2022-09-16T01:31:01.858Z,76.30
2022-09-16T01:36:36.912Z,76.40
2022-09-16T01:42:01.604Z,76.30
2022-09-16T01:47:12.857Z,76.50
2022-09-16T01:52:30.269Z,76.30
2022-09-16T01:57:38.016Z,76.30
2022-09-16T02:02:45.845Z,75.80
2022-09-16T02:07:55.538Z,76.00
2022-09-16T02:13:05.292Z,76.30
2022-09-16T02:18:14.028Z,75.50
2022-09-16T02:23:24.967Z,75.90
2022-09-16T02:28:34.089Z,75.80
2022-09-16T02:33:45.709Z,76.20
2022-09-16T02:38:54.895Z,76.00
2022-09-16T02:43:58.569Z,76.20
2022-09-16T02:49:14.065Z,76.00
2022-09-16T02:54:28.429Z,76.30
2022-09-16T02:59:32.421Z,76.40
2022-09-16T03:04:37.518Z,76.50
2022-09-16T03:09:46.765Z,76.50
2022-09-16T03:15:26.615Z,76.30
2022-09-16T03:20:47.820Z,76.30
2022-09-16T03:26:00.393Z,76.30
2022-09-16T03:31:10.775Z,76.70
2022-09-16T03:36:20.692Z,76.50
2022-09-16T03:41:24.846Z,76.50
2022-09-16T03:46:29.516Z,76.60
2022-09-16T03:51:34.512Z,76.40
2022-09-16T03:56:38.268Z,76.40
2022-09-16T04:01:41.908Z,76.20
2022-09-16T04:06:46.880Z,76.70
2022-09-16T04:11:50.576Z,76.50
2022-09-16T04:16:55.609Z,76.40
2022-09-16T04:22:01.144Z,76.00
2022-09-16T04:27:05.239Z,75.90
2022-09-16T04:32:08.852Z,75.80
2022-09-16T04:37:13.828Z,75.80
2022-09-16T04:42:17.499Z,75.70
2022-09-16T04:47:20.968Z,75.70
2022-09-16T04:52:26.118Z,75.80
2022-09-16T04:57:32.914Z,75.60
2022-09-16T05:02:36.492Z,75.50
2022-09-16T05:07:41.503Z,75.30
2022-09-16T05:12:49.303Z,75.40
2022-09-16T05:17:53.413Z,75.30
2022-09-16T05:22:58.272Z,75.70
2022-09-16T05:28:02.058Z,75.10
2022-09-16T05:33:05.679Z,74.90
2022-09-16T05:38:10.672Z,74.90
2022-09-16T05:43:14.269Z,74.90
2022-09-16T05:48:17.833Z,75.20
2022-09-16T05:53:22.999Z,75.90
2022-09-16T05:58:28.513Z,75.00
2022-09-16T06:03:32.071Z,75.00
2022-09-16T06:08:38.011Z,75.00
2022-09-16T06:13:42.611Z,75.00
2022-09-16T06:18:46.106Z,75.00
2022-09-16T06:23:51.046Z,74.80
2022-09-16T06:28:55.983Z,75.10
2022-09-16T06:34:00.108Z,75.10
2022-09-16T06:39:05.864Z,75.10
2022-09-16T06:44:09.789Z,75.50
2022-09-16T06:49:13.456Z,75.30
2022-09-16T06:54:18.881Z,75.30
2022-09-16T06:59:22.418Z,75.30
2022-09-16T07:04:26.471Z,75.30
2022-09-16T07:09:32.583Z,75.40
2022-09-16T07:14:36.515Z,75.10
2022-09-16T07:19:42.358Z,74.80
2022-09-16T07:24:47.278Z,74.90
2022-09-16T07:29:50.957Z,74.70
2022-09-16T07:34:55.502Z,74.70
2022-09-16T07:40:00.480Z,74.70
2022-09-16T07:45:04.743Z,74.70
2022-09-16T07:50:10.313Z,74.70
2022-09-16T07:55:17.545Z,74.60
2022-09-16T08:00:21.688Z,74.50
2022-09-16T08:05:25.271Z,72.60
2022-09-16T08:10:32.447Z,70.60
2022-09-16T08:15:36.479Z,70.30
2022-09-16T08:20:40.151Z,69.10
2022-09-16T08:25:45.587Z,69.30
2022-09-16T08:30:52.669Z,68.90
2022-09-16T08:36:02.213Z,68.80
2022-09-16T08:41:36.824Z,69.00
2022-09-16T08:46:53.082Z,69.30
2022-09-16T08:51:57.979Z,68.90
2022-09-16T08:57:07.051Z,68.60
2022-09-16T09:02:38.908Z,68.00
2022-09-16T09:08:02.331Z,69.00
2022-09-16T09:13:33.189Z,68.70
2022-09-16T09:18:49.402Z,68.60
2022-09-16T09:24:18.164Z,67.90
2022-09-16T09:29:52.505Z,68.90
2022-09-16T09:35:17.876Z,68.30
2022-09-16T09:40:30.771Z,67.70
2022-09-16T09:45:41.508Z,68.00
2022-09-16T09:50:48.409Z,67.60
2022-09-16T09:56:01.905Z,67.80
2022-09-16T10:01:07.614Z,67.70
2022-09-16T10:06:12.988Z,67.70
2022-09-16T10:11:21.333Z,67.40
2022-09-16T10:16:34.615Z,67.00
2022-09-16T10:21:46.360Z,65.80
2022-09-16T10:26:50.076Z,65.60
2022-09-16T10:31:55.987Z,66.20
2022-09-16T10:37:06.917Z,66.90
2022-09-16T10:42:21.217Z,67.10
2022-09-16T10:47:29.871Z,67.00
2022-09-16T10:52:43.571Z,65.50
2022-09-16T10:57:48.143Z,65.60
2022-09-16T11:03:19.837Z,66.00
2022-09-16T11:08:42.999Z,64.60
2022-09-16T11:13:57.368Z,64.30
2022-09-16T11:19:15.000Z,64.20
2022-09-16T11:25:05.610Z,65.50
2022-09-16T11:30:14.752Z,67.20
2022-09-16T11:36:11.862Z,67.40
2022-09-16T11:41:25.635Z,67.40
2022-09-16T11:46:40.602Z,67.10
2022-09-16T11:52:06.987Z,66.70
2022-09-16T11:57:16.565Z,66.60
2022-09-16T12:02:27.661Z,66.30
2022-09-16T12:07:39.529Z,66.40
2022-09-16T12:12:51.103Z,65.80
2022-09-16T12:18:00.279Z,66.00
2022-09-16T12:23:13.649Z,65.40
2022-09-16T12:28:26.163Z,65.40
2022-09-16T12:33:36.139Z,65.20
2022-09-16T12:38:41.439Z,64.80
2022-09-16T12:44:38.157Z,64.30
2022-09-16T12:50:27.264Z,63.90
2022-09-16T12:56:01.042Z,63.80
2022-09-16T13:01:20.309Z,63.60
2022-09-16T13:06:28.415Z,63.60
2022-09-16T13:17:00.669Z,63.50
2022-09-16T13:22:23.658Z,63.40
2022-09-16T13:27:36.373Z,63.40
2022-09-16T13:32:44.243Z,63.40
2022-09-16T13:37:49.104Z,63.40
2022-09-16T13:43:14.178Z,63.40
2022-09-16T13:48:21.399Z,63.40
2022-09-16T13:53:31.213Z,63.30
2022-09-16T13:58:45.087Z,63.50
2022-09-16T14:03:58.137Z,63.80
2022-09-16T14:09:27.012Z,64.20
2022-09-16T14:14:46.806Z,64.30
2022-09-16T14:19:57.463Z,64.00
2022-09-16T14:25:07.209Z,63.90
2022-09-16T14:30:20.894Z,63.70
2022-09-16T14:35:27.196Z,63.50
2022-09-16T14:40:31.523Z,63.50
2022-09-16T14:45:38.770Z,63.20
2022-09-16T14:50:47.477Z,62.80
2022-09-16T14:55:51.599Z,62.80
2022-09-16T15:01:02.172Z,62.20
2022-09-16T15:06:12.970Z,62.10
2022-09-16T15:11:43.612Z,61.40
2022-09-16T15:16:49.594Z,61.10
2022-09-16T15:21:54.267Z,59.90
2022-09-16T15:26:58.344Z,60.00
2022-09-16T15:32:19.548Z,60.50
2022-09-16T15:37:35.675Z,60.40
2022-09-16T15:42:39.665Z,60.30
2022-09-16T15:47:58.660Z,60.50
2022-09-16T15:53:08.685Z,60.60
2022-09-16T15:58:22.985Z,60.90
2022-09-16T16:03:33.082Z,60.90
2022-09-16T16:08:45.801Z,61.10
2022-09-16T16:13:51.370Z,61.00
2022-09-16T16:18:57.374Z,61.00
2022-09-16T16:24:02.126Z,61.00
2022-09-16T16:29:05.882Z,60.40
2022-09-16T16:34:10.858Z,60.30
2022-09-16T16:39:14.413Z,60.10
2022-09-16T16:44:18.038Z,60.10
2022-09-16T16:49:23.700Z,60.10
2022-09-16T16:54:29.002Z,59.90
2022-09-16T16:59:32.675Z,59.90
2022-09-16T17:04:37.829Z,60.10
2022-09-16T17:09:41.496Z,60.80
2022-09-16T17:14:44.995Z,61.10
2022-09-16T17:19:49.870Z,61.70
2022-09-16T17:24:53.376Z,60.60
2022-09-16T17:29:56.969Z,60.60
2022-09-16T17:35:01.878Z,60.40
2022-09-16T17:40:07.320Z,61.80
2022-09-16T17:45:12.393Z,61.40
2022-09-16T17:50:22.715Z,61.70
2022-09-16T17:55:26.670Z,62.40
2022-09-16T18:00:30.175Z,63.70
2022-09-16T18:05:37.757Z,63.90
2022-09-16T18:10:41.385Z,64.20
2022-09-16T18:15:44.986Z,65.10
2022-09-16T18:20:55.271Z,65.20
2022-09-16T18:25:59.323Z,65.50
2022-09-16T18:31:04.771Z,65.70
2022-09-16T18:36:13.795Z,65.80
2022-09-16T18:41:20.913Z,66.10
2022-09-16T18:46:27.950Z,66.40
2022-09-16T18:51:36.490Z,66.80
2022-09-16T18:56:42.239Z,67.20
2022-09-16T19:01:48.599Z,67.90
2022-09-16T19:06:57.009Z,68.00
2022-09-16T19:12:02.299Z,67.70
2022-09-16T19:17:06.689Z,67.90
2022-09-16T19:22:11.820Z,67.90
2022-09-16T19:27:15.436Z,67.90
2022-09-16T19:32:18.966Z,70.30
2022-09-16T19:37:24.323Z,71.30
2022-09-16T19:42:28.298Z,71.20
2022-09-16T19:47:31.822Z,70.00
2022-09-16T19:52:37.973Z,70.70
2022-09-16T19:57:41.437Z,71.00
2022-09-16T20:02:46.271Z,70.90
2022-09-16T20:07:51.058Z,70.70
2022-09-16T20:12:58.699Z,70.70
2022-09-16T20:18:02.973Z,71.50
2022-09-16T20:23:07.871Z,70.60
2022-09-16T20:28:11.440Z,70.60
2022-09-16T20:33:14.957Z,70.50
2022-09-16T20:38:20.037Z,70.40
2022-09-16T20:43:23.571Z,70.50
2022-09-16T20:48:27.106Z,70.50
2022-09-16T20:53:32.172Z,70.70
2022-09-16T20:58:36.277Z,70.70
2022-09-16T21:03:40.564Z,71.60
2022-09-16T21:08:46.506Z,70.80
2022-09-16T21:13:55.996Z,70.80
2022-09-16T21:19:03.216Z,70.80
2022-09-16T21:24:09.794Z,70.90
2022-09-16T21:29:15.802Z,71.50
2022-09-16T21:34:22.010Z,70.90
2022-09-16T21:39:28.135Z,71.00
2022-09-16T21:44:31.669Z,70.80
2022-09-16T21:49:35.200Z,71.00
2022-09-16T21:54:40.211Z,70.90
2022-09-16T21:59:43.685Z,70.90
2022-09-16T22:04:47.360Z,70.90
2022-09-16T22:09:53.202Z,70.90
2022-09-16T22:15:02.482Z,70.70
2022-09-16T22:20:08.060Z,70.90
2022-09-16T22:25:12.975Z,70.90
2022-09-16T22:30:16.685Z,71.00
2022-09-16T22:35:20.199Z,71.70
2022-09-16T22:40:25.309Z,71.10
2022-09-16T22:45:28.876Z,71.10
2022-09-16T22:50:32.441Z,71.20
2022-09-16T22:55:37.232Z,71.30
2022-09-16T23:00:40.870Z,71.20
2022-09-16T23:05:44.314Z,71.40
2022-09-16T23:10:49.171Z,71.60
2022-09-16T23:15:54.817Z,71.70
2022-09-16T23:21:00.305Z,71.70
2022-09-16T23:26:07.734Z,71.90
2022-09-16T23:31:15.858Z,71.90
2022-09-16T23:36:20.090Z,72.10
2022-09-16T23:41:27.671Z,72.20
2022-09-16T23:46:31.517Z,72.10
2022-09-16T23:51:36.563Z,72.10
2022-09-16T23:56:42.764Z,72.20
